Time;durP1;ratioP1;P1;durP2;ratioP2;P2;SDS_P1;SDS_P2;PMS_P1;PMS_P2;Temp;Humidity;BMP_temperature;BMP_pressure;BME280_temperature;BME280_humidity;BME280_pressure;Samples;Min_cycle;Max_cycle;Signal;HPM_P1;HPM_P2
2023/10/27 00:00:38;;;;;;;58.38;33.40;;;11.60;99.90;;;;;;6272785;22;20006;-78
2023/10/27 00:03:04;;;;;;;54.33;32.78;;;11.60;99.90;;;;;;6272715;22;19999;-78
2023/10/27 00:05:31;;;;;;;62.78;36.60;;;11.60;99.90;;;;;;6272271;22;20003;-78
2023/10/27 00:07:57;;;;;;;70.72;37.38;;;11.60;99.90;;;;;;6272418;22;20079;-78
2023/10/27 00:10:24;;;;;;;69.90;38.55;;;11.60;99.90;;;;;;6272773;22;20030;-78
2023/10/27 00:12:50;;;;;;;58.50;33.92;;;11.60;99.90;;;;;;6245112;22;20079;-78
2023/10/27 00:15:16;;;;;;;73.95;39.30;;;11.60;99.90;;;;;;6272539;22;20034;-78
2023/10/27 00:17:41;;;;;;;70.60;41.00;;;11.60;99.90;;;;;;6245371;22;20011;-78
2023/10/27 00:20:07;;;;;;;71.57;38.03;;;11.60;99.90;;;;;;6245234;22;20787;-78
2023/10/27 00:22:33;;;;;;;60.70;36.13;;;11.60;99.90;;;;;;6272477;22;20429;-78
2023/10/27 00:24:59;;;;;;;65.50;36.20;;;11.60;99.90;;;;;;6272504;22;20053;-78
2023/10/27 00:27:25;;;;;;;62.95;36.28;;;11.60;99.90;;;;;;6272418;22;20000;-78
2023/10/27 00:29:50;;;;;;;66.82;38.70;;;11.60;99.90;;;;;;6272353;22;20046;-78
2023/10/27 00:32:16;;;;;;;59.45;36.85;;;11.70;99.90;;;;;;6272432;22;20000;-78
2023/10/27 00:34:42;;;;;;;66.50;36.13;;;11.70;99.90;;;;;;6272202;22;20004;-78
2023/10/27 00:37:07;;;;;;;66.25;35.85;;;11.80;99.90;;;;;;6272458;22;20096;-78
2023/10/27 00:39:33;;;;;;;56.50;34.10;;;11.70;99.90;;;;;;6272210;22;20061;-78
2023/10/27 00:41:59;;;;;;;66.88;36.70;;;11.80;99.90;;;;;;6272323;22;20393;-78
2023/10/27 00:44:24;;;;;;;65.28;35.60;;;11.70;99.90;;;;;;6272540;22;19999;-79
2023/10/27 00:46:51;;;;;;;59.10;34.67;;;11.70;99.90;;;;;;6271317;22;20000;-79
2023/10/27 00:49:17;;;;;;;70.95;39.03;;;11.80;99.90;;;;;;6272464;22;20008;-78
2023/10/27 00:51:46;;;;;;;74.45;39.50;;;11.80;99.90;;;;;;6272491;22;20007;-78
2023/10/27 00:54:15;;;;;;;68.00;38.10;;;11.80;99.90;;;;;;6272721;22;20003;-78
2023/10/27 00:56:41;;;;;;;69.63;37.35;;;11.80;99.90;;;;;;6272122;22;20093;-78
2023/10/27 00:59:07;;;;;;;66.90;38.05;;;11.80;99.90;;;;;;6272591;22;20004;-79
2023/10/27 01:01:33;;;;;;;78.28;39.55;;;11.80;99.90;;;;;;6271599;22;20035;-78
2023/10/27 01:03:59;;;;;;;70.32;37.58;;;11.80;99.90;;;;;;6245242;22;20030;-78
2023/10/27 01:06:25;;;;;;;71.95;40.08;;;11.80;99.90;;;;;;6272223;22;20007;-79
2023/10/27 01:08:51;;;;;;;59.80;33.67;;;11.80;99.90;;;;;;6244809;22;20099;-79
2023/10/27 01:11:18;;;;;;;81.97;40.53;;;11.80;99.90;;;;;;6272003;22;20003;-79
2023/10/27 01:13:44;;;;;;;75.80;40.05;;;11.80;99.90;;;;;;6272112;22;20000;-79
2023/10/27 01:16:10;;;;;;;84.35;40.58;;;11.80;99.90;;;;;;6271540;22;20053;-79
2023/10/27 01:18:35;;;;;;;79.63;40.75;;;11.90;99.90;;;;;;6272071;22;20455;-80
2023/10/27 01:21:01;;;;;;;77.55;40.30;;;11.80;99.90;;;;;;6271861;22;19999;-79
2023/10/27 01:23:27;;;;;;;89.35;39.83;;;11.80;99.90;;;;;;6271962;22;20421;-80
2023/10/27 01:25:52;;;;;;;98.65;43.00;;;11.90;99.90;;;;;;6271720;22;20000;-80
2023/10/27 01:28:18;;;;;;;99.22;43.00;;;11.90;99.90;;;;;;6271719;22;20137;-79
2023/10/27 01:30:44;;;;;;;99.78;44.20;;;11.90;99.90;;;;;;6271542;22;20003;-79
2023/10/27 01:33:09;;;;;;;89.82;42.88;;;11.90;99.90;;;;;;6272376;22;20000;-79
2023/10/27 01:35:35;;;;;;;87.05;40.22;;;11.90;99.90;;;;;;6271734;22;20012;-79
2023/10/27 01:38:02;;;;;;;83.60;40.28;;;11.90;99.90;;;;;;6244764;22;20110;-80
2023/10/27 01:40:27;;;;;;;101.97;42.42;;;11.90;99.90;;;;;;6271785;22;20032;-79
2023/10/27 01:42:53;;;;;;;90.75;41.40;;;11.90;99.90;;;;;;6271991;22;20008;-79
2023/10/27 01:45:22;;;;;;;94.82;42.25;;;12.00;99.90;;;;;;6271191;22;20003;-80
2023/10/27 01:47:48;;;;;;;96.97;42.63;;;11.90;99.90;;;;;;6271804;22;20046;-79
2023/10/27 01:50:13;;;;;;;78.90;37.75;;;11.90;99.90;;;;;;6272180;22;20028;-80
2023/10/27 01:52:39;;;;;;;83.13;38.00;;;11.90;99.90;;;;;;6271853;22;20020;-80
2023/10/27 01:55:04;;;;;;;86.05;40.15;;;11.90;99.90;;;;;;6271794;22;19999;-80
2023/10/27 01:57:30;;;;;;;93.30;42.55;;;12.00;99.90;;;;;;6271906;22;20024;-80
2023/10/27 01:59:55;;;;;;;80.55;39.05;;;12.00;99.90;;;;;;6271128;22;19999;-80
2023/10/27 02:02:21;;;;;;;83.82;38.25;;;12.00;99.90;;;;;;6271892;22;20038;-80
2023/10/27 02:04:46;;;;;;;96.18;41.10;;;12.00;99.90;;;;;;6271627;22;20030;-80
2023/10/27 02:07:13;;;;;;;96.72;39.10;;;12.00;99.90;;;;;;6272265;22;20031;-80
2023/10/27 02:09:39;;;;;;;93.80;40.05;;;12.00;99.90;;;;;;6271701;22;20095;-80
2023/10/27 02:12:07;;;;;;;92.88;40.28;;;12.00;99.90;;;;;;6271844;22;20437;-80
2023/10/27 02:14:33;;;;;;;82.72;39.22;;;12.00;99.90;;;;;;6271125;22;20004;-80
2023/10/27 02:16:58;;;;;;;114.40;46.53;;;12.00;99.90;;;;;;6271773;22;20034;-80
2023/10/27 02:19:24;;;;;;;119.13;42.20;;;12.00;99.90;;;;;;6271594;22;20000;-80
2023/10/27 02:21:49;;;;;;;89.30;42.38;;;12.00;99.90;;;;;;6271710;22;20003;-80
2023/10/27 02:24:16;;;;;;;97.75;42.03;;;12.00;99.90;;;;;;6271834;22;20004;-80
2023/10/27 02:26:41;;;;;;;109.57;41.22;;;12.00;99.90;;;;;;6271651;22;20023;-79
2023/10/27 02:29:07;;;;;;;81.38;37.28;;;12.00;99.90;;;;;;6270929;22;20061;-80
2023/10/27 02:31:33;;;;;;;107.30;41.85;;;12.10;99.90;;;;;;6271377;22;20004;-81
2023/10/27 02:33:58;;;;;;;87.85;36.95;;;12.10;99.90;;;;;;6271455;22;20008;-80
2023/10/27 02:36:24;;;;;;;102.68;39.15;;;12.00;99.90;;;;;;6244309;22;20042;-80
2023/10/27 02:38:50;;;;;;;104.07;38.88;;;12.00;99.90;;;;;;6271063;22;20066;-80
2023/10/27 02:41:16;;;;;;;93.85;37.13;;;12.00;99.90;;;;;;6273519;22;20417;-81
2023/10/27 02:43:41;;;;;;;94.45;36.65;;;12.00;99.90;;;;;;6272655;22;20417;-80
2023/10/27 02:46:07;;;;;;;84.63;35.63;;;12.00;99.90;;;;;;6274115;22;20000;-80
2023/10/27 02:48:32;;;;;;;89.22;36.30;;;12.00;99.90;;;;;;6273346;22;20003;-80
2023/10/27 02:50:58;;;;;;;74.50;33.00;;;12.00;99.90;;;;;;6246449;22;20014;-80
2023/10/27 02:53:23;;;;;;;87.00;34.92;;;12.00;99.90;;;;;;6273239;22;20010;-79
2023/10/27 02:55:50;;;;;;;105.75;37.03;;;12.10;99.90;;;;;;6272885;22;20409;-79
2023/10/27 02:58:15;;;;;;;103.63;36.35;;;12.00;99.90;;;;;;6272495;22;19999;-79
2023/10/27 03:00:42;;;;;;;103.18;37.85;;;12.00;99.90;;;;;;6273434;22;20317;-80
2023/10/27 03:03:08;;;;;;;87.43;35.00;;;12.00;99.90;;;;;;6273071;22;20014;-79
2023/10/27 03:05:33;;;;;;;86.85;35.38;;;12.00;99.90;;;;;;6273088;22;19999;-80
2023/10/27 03:07:59;;;;;;;81.05;35.42;;;12.10;99.90;;;;;;6273111;22;20039;-79
2023/10/27 03:10:25;;;;;;;70.93;30.08;;;12.00;99.90;;;;;;6273509;22;20030;-80
2023/10/27 03:12:51;;;;;;;77.45;29.98;;;12.00;99.90;;;;;;6272298;22;20004;-80
2023/10/27 03:15:16;;;;;;;84.53;33.60;;;12.00;99.90;;;;;;6273079;22;20075;-80
2023/10/27 03:17:42;;;;;;;96.57;33.67;;;12.00;99.90;;;;;;6245122;22;20000;-80
2023/10/27 03:20:08;;;;;;;72.32;30.35;;;12.00;99.90;;;;;;6272498;22;20019;-80
2023/10/27 03:22:34;;;;;;;69.88;31.08;;;12.00;99.90;;;;;;6272857;22;19996;-80
2023/10/27 03:25:01;;;;;;;88.90;34.92;;;12.00;99.90;;;;;;6272596;22;20029;-79
2023/10/27 03:27:27;;;;;;;90.13;33.80;;;12.00;99.90;;;;;;6272396;22;20429;-80
2023/10/27 03:29:52;;;;;;;119.22;35.97;;;12.00;99.90;;;;;;6272898;22;20002;-81
2023/10/27 03:32:18;;;;;;;90.20;32.15;;;12.00;99.90;;;;;;6272978;22;20459;-80
2023/10/27 03:34:45;;;;;;;92.88;32.03;;;12.00;99.90;;;;;;6272986;22;20000;-80
2023/10/27 03:37:12;;;;;;;91.78;33.92;;;12.00;99.90;;;;;;6272966;22;20022;-81
2023/10/27 03:39:38;;;;;;;94.10;36.67;;;12.00;99.90;;;;;;6272605;22;20014;-79
2023/10/27 03:42:04;;;;;;;89.88;36.22;;;12.00;99.90;;;;;;6272346;22;20015;-80
2023/10/27 03:44:30;;;;;;;93.28;34.47;;;12.00;99.90;;;;;;6272646;22;20008;-79
2023/10/27 03:46:55;;;;;;;92.80;35.65;;;12.00;99.90;;;;;;6272761;22;19999;-79
2023/10/27 03:49:21;;;;;;;87.00;33.55;;;12.00;99.90;;;;;;6245678;22;20348;-79
2023/10/27 03:51:46;;;;;;;75.38;32.47;;;12.00;99.90;;;;;;6245391;22;20003;-80
2023/10/27 03:54:12;;;;;;;87.75;33.97;;;12.00;99.90;;;;;;6273261;22;20028;-80
2023/10/27 03:56:37;;;;;;;75.00;32.08;;;12.00;99.90;;;;;;6272087;22;20057;-80
2023/10/27 03:59:03;;;;;;;78.38;31.75;;;12.00;99.90;;;;;;6272700;22;20400;-80
2023/10/27 04:01:28;;;;;;;80.35;32.67;;;12.00;99.90;;;;;;6272285;22;20461;-80
2023/10/27 04:03:55;;;;;;;84.20;33.63;;;12.00;99.90;;;;;;6272716;22;20414;-80
2023/10/27 04:06:21;;;;;;;63.92;30.52;;;12.00;99.90;;;;;;6272739;22;20523;-81
2023/10/27 04:08:47;;;;;;;86.85;30.67;;;12.00;99.90;;;;;;6272793;22;20007;-80
2023/10/27 04:11:12;;;;;;;48.95;25.42;;;12.00;99.90;;;;;;6245030;22;20006;-80
2023/10/27 04:13:39;;;;;;;70.38;27.95;;;12.00;99.90;;;;;;6272607;22;20004;-80
2023/10/27 04:16:04;;;;;;;82.05;30.48;;;12.00;99.90;;;;;;6272363;22;20003;-80
2023/10/27 04:18:31;;;;;;;87.57;31.88;;;12.00;99.90;;;;;;6272450;22;20370;-80
2023/10/27 04:20:56;;;;;;;73.00;30.58;;;12.00;99.90;;;;;;6271979;22;19999;-80
2023/10/27 04:23:22;;;;;;;87.80;33.42;;;12.00;99.90;;;;;;6272605;22;20000;-82
2023/10/27 04:25:47;;;;;;;64.07;28.73;;;12.00;99.90;;;;;;6271817;22;20000;-82
2023/10/27 04:28:13;;;;;;;71.50;29.65;;;12.00;99.90;;;;;;6272805;22;20008;-82
2023/10/27 04:30:39;;;;;;;64.47;27.08;;;12.00;99.90;;;;;;6244866;22;20004;-82
2023/10/27 04:33:05;;;;;;;75.97;29.85;;;12.00;99.90;;;;;;6245460;22;20008;-81
2023/10/27 04:35:32;;;;;;;88.18;33.00;;;12.00;99.90;;;;;;6244854;22;20008;-81
2023/10/27 04:37:58;;;;;;;75.28;26.88;;;12.00;99.90;;;;;;6245079;22;20051;-81
2023/10/27 04:40:25;;;;;;;54.13;25.85;;;12.00;99.90;;;;;;6244595;22;20011;-82
2023/10/27 04:42:51;;;;;;;65.93;27.85;;;12.00;99.90;;;;;;6246781;22;20435;-81
2023/10/27 04:45:16;;;;;;;60.30;27.63;;;12.00;99.90;;;;;;6272492;22;20003;-81
2023/10/27 04:47:43;;;;;;;70.03;28.90;;;12.00;99.90;;;;;;6245436;22;20395;-83
2023/10/27 04:50:09;;;;;;;57.13;25.75;;;12.00;99.90;;;;;;6245231;22;20008;-81
2023/10/27 04:52:35;;;;;;;68.93;25.90;;;12.10;99.90;;;;;;6272307;22;20499;-82
2023/10/27 04:55:00;;;;;;;65.68;24.77;;;12.10;99.90;;;;;;6271565;22;19992;-81
2023/10/27 04:57:26;;;;;;;53.60;23.25;;;12.10;99.90;;;;;;6245223;22;20018;-81
2023/10/27 04:59:51;;;;;;;45.53;21.20;;;12.10;99.90;;;;;;6244617;22;20058;-81
2023/10/27 05:02:17;;;;;;;47.33;22.85;;;12.10;99.90;;;;;;6271937;22;20007;-81
2023/10/27 05:04:42;;;;;;;47.60;21.00;;;12.10;99.90;;;;;;6271910;22;20053;-81
2023/10/27 05:07:10;;;;;;;66.28;23.65;;;12.10;99.90;;;;;;6272328;22;20000;-81
2023/10/27 05:09:35;;;;;;;49.10;21.27;;;12.10;99.90;;;;;;6244275;22;20022;-81
2023/10/27 05:12:02;;;;;;;44.35;19.42;;;12.00;99.90;;;;;;6271983;22;19996;-80
2023/10/27 05:14:28;;;;;;;33.83;18.55;;;12.10;99.90;;;;;;6271765;22;20381;-80
2023/10/27 05:16:53;;;;;;;38.10;18.65;;;12.10;99.90;;;;;;6271765;22;20004;-81
2023/10/27 05:19:19;;;;;;;39.42;18.48;;;12.10;99.90;;;;;;6244724;22;20483;-80
2023/10/27 05:21:44;;;;;;;46.10;19.35;;;12.10;99.90;;;;;;6272147;22;20007;-80
2023/10/27 05:24:11;;;;;;;47.05;19.27;;;12.10;99.90;;;;;;6271508;22;20042;-80
2023/10/27 05:26:37;;;;;;;36.28;16.80;;;12.20;99.90;;;;;;6244886;22;20077;-79
2023/10/27 05:29:02;;;;;;;33.17;16.77;;;12.20;99.90;;;;;;6244338;22;20004;-80
2023/10/27 05:31:28;;;;;;;35.10;18.00;;;12.10;99.90;;;;;;6271825;22;20475;-80
2023/10/27 05:33:53;;;;;;;38.35;17.23;;;12.10;99.90;;;;;;6271690;22;19996;-80
2023/10/27 05:36:19;;;;;;;34.42;16.33;;;12.10;99.90;;;;;;6271760;22;20003;-80
2023/10/27 05:38:45;;;;;;;38.58;17.42;;;12.10;99.90;;;;;;6270903;22;20015;-79
2023/10/27 05:41:10;;;;;;;34.05;17.77;;;12.10;99.90;;;;;;6271970;22;20061;-80
2023/10/27 05:43:36;;;;;;;33.63;16.15;;;12.10;99.90;;;;;;6244425;22;20152;-80
2023/10/27 05:46:01;;;;;;;32.92;15.73;;;12.10;99.90;;;;;;6244726;22;20337;-80
2023/10/27 05:48:27;;;;;;;27.58;13.93;;;12.10;99.90;;;;;;6244476;22;20476;-79
2023/10/27 05:50:52;;;;;;;37.08;16.88;;;12.10;99.90;;;;;;6244604;22;20008;-80
2023/10/27 05:53:18;;;;;;;27.70;13.63;;;12.10;99.90;;;;;;6268888;22;20046;-79
2023/10/27 05:55:43;;;;;;;34.15;15.52;;;12.10;99.90;;;;;;6269255;22;20110;-80
2023/10/27 05:58:09;;;;;;;35.85;17.08;;;12.10;99.90;;;;;;6242901;22;20007;-79
2023/10/27 06:00:34;;;;;;;30.65;15.43;;;12.10;99.90;;;;;;6269647;22;20501;-79
2023/10/27 06:03:00;;;;;;;31.58;16.05;;;12.00;99.90;;;;;;6271401;22;20054;-80
2023/10/27 06:05:25;;;;;;;21.23;12.77;;;12.00;99.90;;;;;;6271606;22;19999;-80
2023/10/27 06:07:51;;;;;;;26.08;13.38;;;12.00;99.90;;;;;;6270654;22;20007;-79
2023/10/27 06:10:18;;;;;;;26.52;13.60;;;12.10;99.90;;;;;;6271977;22;20000;-80
2023/10/27 06:12:43;;;;;;;16.80;10.77;;;12.00;99.90;;;;;;6244409;22;20472;-80
2023/10/27 06:15:09;;;;;;;21.58;13.52;;;12.00;99.90;;;;;;6273196;22;20000;-79
2023/10/27 06:17:35;;;;;;;22.38;12.25;;;11.90;99.90;;;;;;6273399;22;20007;-79
2023/10/27 06:20:03;;;;;;;19.90;11.18;;;11.90;99.90;;;;;;6246434;22;20016;-79
2023/10/27 06:22:30;;;;;;;20.98;12.82;;;11.90;99.90;;;;;;6272869;22;20000;-79
2023/10/27 06:24:55;;;;;;;23.08;12.68;;;11.90;99.90;;;;;;6273697;22;20410;-74
2023/10/27 06:27:21;;;;;;;19.55;10.75;;;11.90;99.90;;;;;;6273782;22;20014;-73
2023/10/27 06:29:47;;;;;;;19.88;12.38;;;12.00;99.90;;;;;;6273644;22;20007;-74
2023/10/27 06:32:13;;;;;;;22.50;13.23;;;12.00;99.90;;;;;;6274162;22;20000;-74
2023/10/27 06:34:38;;;;;;;20.50;13.45;;;11.90;99.90;;;;;;6273726;22;20000;-73
2023/10/27 06:37:05;;;;;;;30.38;15.15;;;12.00;99.90;;;;;;6273474;22;20418;-74
2023/10/27 06:39:31;;;;;;;27.05;14.13;;;12.00;99.90;;;;;;6274542;22;20457;-74
2023/10/27 06:41:56;;;;;;;24.83;14.40;;;11.90;99.90;;;;;;6273780;22;20014;-74
2023/10/27 06:44:22;;;;;;;26.70;14.98;;;11.90;99.90;;;;;;6273898;22;20022;-74
2023/10/27 06:46:48;;;;;;;24.63;13.90;;;11.90;99.90;;;;;;6273237;22;20007;-74
2023/10/27 06:49:14;;;;;;;23.50;12.65;;;11.90;99.90;;;;;;6273879;22;20007;-73
2023/10/27 06:51:40;;;;;;;30.92;15.07;;;11.90;99.90;;;;;;6272963;22;20004;-74
2023/10/27 06:54:05;;;;;;;16.70;11.20;;;11.90;99.90;;;;;;6246437;22;20007;-74
2023/10/27 06:56:31;;;;;;;20.60;11.73;;;11.90;99.90;;;;;;6273212;22;20518;-74
2023/10/27 06:58:57;;;;;;;24.30;14.73;;;11.90;99.90;;;;;;6272898;22;20480;-74
2023/10/27 07:01:23;;;;;;;22.08;12.63;;;11.90;99.90;;;;;;6273003;22;20022;-74
2023/10/27 07:03:49;;;;;;;22.05;13.13;;;11.90;99.90;;;;;;6272767;22;20008;-74
2023/10/27 07:06:15;;;;;;;26.05;13.80;;;11.90;99.90;;;;;;6273760;22;20004;-74
2023/10/27 07:08:43;;;;;;;21.58;13.02;;;11.90;99.90;;;;;;6273644;22;20424;-74
2023/10/27 07:11:09;;;;;;;26.75;14.68;;;11.90;99.90;;;;;;6273617;22;20000;-74
2023/10/27 07:13:35;;;;;;;25.40;14.02;;;12.00;99.90;;;;;;6273481;22;20377;-74
2023/10/27 07:16:01;;;;;;;26.60;15.55;;;12.00;99.90;;;;;;6273071;22;20046;-74
2023/10/27 07:18:27;;;;;;;25.25;14.63;;;12.00;99.90;;;;;;6245668;22;20004;-74
2023/10/27 07:20:53;;;;;;;30.73;15.60;;;12.00;99.90;;;;;;6272702;22;20461;-74
2023/10/27 07:23:19;;;;;;;28.02;16.77;;;12.00;99.90;;;;;;6273213;22;20003;-74
2023/10/27 07:25:45;;;;;;;23.88;13.77;;;12.00;99.90;;;;;;6272261;22;20080;-74
2023/10/27 07:28:13;;;;;;;27.08;15.05;;;12.00;99.90;;;;;;6273413;22;20004;-74
2023/10/27 07:30:38;;;;;;;23.17;15.10;;;12.00;99.90;;;;;;6272695;22;19999;-74
2023/10/27 07:33:04;;;;;;;20.10;12.93;;;12.00;99.90;;;;;;6272556;22;20440;-74
2023/10/27 07:35:33;;;;;;;25.17;14.27;;;12.00;99.90;;;;;;6272939;22;20030;-74
2023/10/27 07:37:59;;;;;;;25.48;15.68;;;12.00;99.90;;;;;;6245720;22;20020;-74
2023/10/27 07:40:25;;;;;;;27.15;14.98;;;12.10;99.90;;;;;;6273227;22;20326;-74
2023/10/27 07:42:51;;;;;;;22.58;13.60;;;12.10;99.90;;;;;;6272921;22;20007;-74
2023/10/27 07:45:17;;;;;;;30.33;16.15;;;12.10;99.90;;;;;;6273099;22;20078;-74
2023/10/27 07:47:43;;;;;;;25.20;14.73;;;12.10;99.90;;;;;;6271966;22;20070;-74
2023/10/27 07:50:10;;;;;;;21.35;13.85;;;12.10;99.90;;;;;;6245774;22;20045;-73
2023/10/27 07:52:36;;;;;;;20.13;13.43;;;12.20;99.90;;;;;;6245375;22;20341;-74
2023/10/27 07:55:02;;;;;;;25.75;15.48;;;12.10;99.90;;;;;;6245263;22;20032;-74
2023/10/27 07:57:28;;;;;;;25.35;14.23;;;12.20;99.90;;;;;;6270724;22;20004;-74
2023/10/27 07:59:54;;;;;;;34.28;16.58;;;12.20;99.90;;;;;;6271786;22;20026;-74
2023/10/27 08:02:19;;;;;;;23.25;14.50;;;12.20;99.90;;;;;;6272308;22;20333;-74
2023/10/27 08:04:45;;;;;;;23.50;13.45;;;12.20;99.90;;;;;;6272327;22;20008;-74
2023/10/27 08:07:10;;;;;;;24.17;15.40;;;12.20;99.90;;;;;;6273189;22;20012;-74
2023/10/27 08:09:36;;;;;;;21.42;15.25;;;12.20;99.90;;;;;;6272442;22;20008;-74
2023/10/27 08:12:03;;;;;;;23.27;13.60;;;12.20;99.90;;;;;;6272521;22;20414;-74
2023/10/27 08:14:29;;;;;;;20.10;14.13;;;12.30;99.90;;;;;;6272434;22;20038;-74
2023/10/27 08:16:54;;;;;;;25.17;16.25;;;12.30;99.90;;;;;;6244524;22;20008;-74
2023/10/27 08:19:20;;;;;;;21.05;16.02;;;12.30;99.90;;;;;;6272440;22;20418;-74
2023/10/27 08:21:48;;;;;;;25.83;14.82;;;12.30;99.90;;;;;;6272314;22;20329;-74
2023/10/27 08:24:14;;;;;;;29.05;16.33;;;12.30;99.90;;;;;;6273041;22;20417;-74
2023/10/27 08:26:39;;;;;;;21.02;13.93;;;12.30;99.90;;;;;;6245266;22;20058;-73
2023/10/27 08:29:05;;;;;;;27.30;16.90;;;12.40;99.90;;;;;;6272531;22;20010;-74
2023/10/27 08:31:30;;;;;;;23.00;15.75;;;12.30;99.90;;;;;;6271446;22;20007;-74
2023/10/27 08:33:59;;;;;;;25.70;15.30;;;12.30;99.90;;;;;;6272710;22;20000;-74
2023/10/27 08:36:25;;;;;;;20.15;13.98;;;12.30;99.90;;;;;;6272234;22;20003;-74
2023/10/27 08:38:54;;;;;;;23.42;15.40;;;12.30;99.90;;;;;;6271680;22;20023;-74
2023/10/27 08:41:22;;;;;;;23.73;15.88;;;12.30;99.90;;;;;;6272447;22;20039;-74
2023/10/27 08:43:48;;;;;;;28.20;16.45;;;12.30;99.90;;;;;;6271726;22;20004;-74
2023/10/27 08:46:14;;;;;;;25.30;15.20;;;12.30;99.90;;;;;;6271843;22;20018;-74
2023/10/27 08:48:41;;;;;;;25.60;15.90;;;12.30;99.90;;;;;;6272310;22;20003;-74
2023/10/27 08:51:09;;;;;;;28.42;15.90;;;12.30;99.90;;;;;;6272099;22;20062;-74
2023/10/27 08:53:42;;;;;;;28.60;16.67;;;12.30;99.90;;;;;;6272265;22;20071;-74
2023/10/27 08:56:17;;;;;;;25.25;15.60;;;12.40;99.90;;;;;;6272268;22;20014;-74
2023/10/27 08:58:51;;;;;;;22.52;15.65;;;12.40;99.90;;;;;;6271966;22;20025;-76
2023/10/27 09:01:17;;;;;;;20.35;14.40;;;12.40;99.90;;;;;;6271634;22;20433;-80
2023/10/27 09:04:10;;;;;;;19.85;13.98;;;12.40;99.90;;;;;;6271874;22;20059;-74
2023/10/27 09:06:37;;;;;;;22.20;13.80;;;12.40;99.90;;;;;;6272198;22;20054;-75
2023/10/27 09:09:05;;;;;;;17.35;12.68;;;12.40;99.90;;;;;;6272072;22;20486;-75
2023/10/27 09:11:39;;;;;;;21.02;14.27;;;12.40;99.90;;;;;;6271942;22;20011;-74
2023/10/27 09:14:18;;;;;;;20.20;13.15;;;12.50;99.90;;;;;;6272088;22;20025;-73
2023/10/27 09:16:44;;;;;;;15.88;12.23;;;12.50;99.90;;;;;;6271833;22;20017;-72
2023/10/27 09:19:22;;;;;;;16.50;12.63;;;12.50;99.90;;;;;;6272432;22;19996;-73
2023/10/27 09:21:48;;;;;;;19.15;13.63;;;12.60;99.90;;;;;;6271845;22;20003;-74
2023/10/27 09:24:27;;;;;;;21.02;14.30;;;12.60;99.90;;;;;;6272309;22;20007;-75
2023/10/27 09:27:02;;;;;;;16.55;13.57;;;12.60;99.90;;;;;;6244464;22;20341;-74
2023/10/27 09:29:30;;;;;;;20.15;13.95;;;12.60;99.90;;;;;;6271492;22;20445;-74
2023/10/27 09:31:55;;;;;;;22.83;14.45;;;12.60;99.90;;;;;;6271838;22;20079;-74
2023/10/27 09:34:23;;;;;;;16.73;12.43;;;12.70;99.90;;;;;;6271911;22;20057;-74
2023/10/27 09:36:53;;;;;;;17.77;13.95;;;12.70;99.90;;;;;;6244614;22;20349;-74
2023/10/27 09:39:20;;;;;;;20.83;14.50;;;12.70;99.90;;;;;;6272060;22;20083;-74
2023/10/27 09:41:58;;;;;;;14.88;11.90;;;12.70;99.90;;;;;;6271922;22;20063;-74
2023/10/27 09:44:34;;;;;;;17.92;13.50;;;12.80;99.90;;;;;;6271479;22;20000;-76
2023/10/27 09:47:05;;;;;;;15.77;13.15;;;12.80;99.90;;;;;;6244764;22;20008;-74
2023/10/27 09:49:38;;;;;;;19.20;13.68;;;12.80;99.90;;;;;;6272394;22;20008;-76
2023/10/27 09:52:09;;;;;;;16.92;13.10;;;12.80;99.90;;;;;;6274000;22;20008;-74
2023/10/27 09:54:36;;;;;;;15.68;11.90;;;12.80;99.90;;;;;;6274124;22;20234;-75
2023/10/27 09:57:02;;;;;;;17.08;13.45;;;12.80;99.90;;;;;;6273506;22;20501;-76
2023/10/27 09:59:30;;;;;;;14.98;11.82;;;12.80;99.90;;;;;;6273384;22;20481;-80
2023/10/27 10:01:56;;;;;;;15.90;12.25;;;12.90;99.90;;;;;;6273348;22;20066;-76
2023/10/27 10:04:50;;;;;;;16.63;13.40;;;12.90;99.90;;;;;;6273972;22;20126;-76
2023/10/27 10:07:35;;;;;;;18.33;13.07;;;12.90;99.90;;;;;;6273945;22;20004;-74
2023/10/27 10:10:31;;;;;;;13.77;11.32;;;13.00;99.90;;;;;;6273673;22;20240;-76
2023/10/27 10:13:18;;;;;;;12.32;10.07;;;13.00;99.90;;;;;;6273115;22;19999;-75
2023/10/27 10:15:45;;;;;;;12.77;10.60;;;13.00;99.90;;;;;;6273587;22;20007;-82
2023/10/27 10:18:19;;;;;;;14.60;11.43;;;13.00;99.90;;;;;;6273954;22;20004;-73
2023/10/27 10:20:47;;;;;;;13.65;11.20;;;13.10;99.90;;;;;;6273755;22;19996;-75
2023/10/27 10:23:13;;;;;;;16.77;11.77;;;13.10;99.90;;;;;;6274293;22;20067;-74
2023/10/27 10:25:55;;;;;;;11.25;10.13;;;13.10;99.90;;;;;;6273419;22;19999;-74
2023/10/27 10:28:22;;;;;;;12.73;11.20;;;13.00;99.90;;;;;;6273203;22;20414;-74
2023/10/27 10:30:48;;;;;;;12.23;10.27;;;13.10;99.90;;;;;;6273441;22;20003;-74
2023/10/27 10:33:14;;;;;;;15.43;11.88;;;13.10;99.90;;;;;;6274277;22;20000;-74
2023/10/27 10:35:40;;;;;;;14.60;11.57;;;13.10;99.90;;;;;;6273694;22;20002;-74
2023/10/27 10:38:21;;;;;;;11.98;10.48;;;13.10;99.90;;;;;;6274801;22;20376;-75
2023/10/27 10:40:56;;;;;;;11.88;9.60;;;13.20;99.90;;;;;;6273497;22;20000;-74
2023/10/27 10:43:36;;;;;;;15.55;11.02;;;13.20;99.90;;;;;;6245746;22;20242;-74
2023/10/27 10:46:03;;;;;;;11.43;10.18;;;13.30;99.90;;;;;;6273511;22;20089;-74
2023/10/27 10:48:36;;;;;;;13.68;10.88;;;13.20;99.90;;;;;;6273268;22;20030;-74
2023/10/27 10:51:05;;;;;;;12.33;10.33;;;13.30;99.90;;;;;;6273662;22;20065;-74
2023/10/27 10:53:30;;;;;;;10.40;9.27;;;13.30;99.90;;;;;;6273529;22;20067;-74
2023/10/27 10:55:58;;;;;;;10.10;8.45;;;13.30;99.90;;;;;;6272674;22;20035;-74
2023/10/27 10:58:35;;;;;;;12.40;10.23;;;13.30;99.90;;;;;;6273036;22;20007;-74
2023/10/27 11:01:03;;;;;;;13.77;11.23;;;13.30;99.90;;;;;;6273349;22;20019;-74
2023/10/27 11:03:31;;;;;;;11.40;9.43;;;13.30;99.90;;;;;;6272944;22;20002;-74
2023/10/27 11:06:06;;;;;;;11.20;9.32;;;13.30;99.90;;;;;;6272845;22;19999;-74
2023/10/27 11:08:35;;;;;;;10.98;9.32;;;13.40;99.90;;;;;;6273094;22;20329;-74
2023/10/27 11:11:03;;;;;;;9.07;8.18;;;13.40;99.90;;;;;;6272181;22;20007;-74
2023/10/27 11:13:29;;;;;;;12.45;9.77;;;13.40;99.90;;;;;;6244027;22;20058;-74
2023/10/27 11:15:54;;;;;;;9.77;8.15;;;13.40;99.90;;;;;;6273068;22;20069;-74
2023/10/27 11:18:20;;;;;;;9.30;7.95;;;13.50;99.90;;;;;;6273118;22;20414;-74
2023/10/27 11:20:47;;;;;;;12.70;10.65;;;13.50;99.90;;;;;;6273193;22;20163;-74
2023/10/27 11:23:15;;;;;;;13.02;9.93;;;13.50;99.90;;;;;;6273721;22;20028;-75
2023/10/27 11:25:41;;;;;;;11.57;10.38;;;13.50;99.90;;;;;;6272890;22;19999;-74
2023/10/27 11:28:27;;;;;;;11.10;9.63;;;13.50;99.90;;;;;;6272774;22;20011;-74
2023/10/27 11:31:05;;;;;;;12.43;10.65;;;13.50;99.90;;;;;;6272624;22;20001;-74
2023/10/27 11:33:31;;;;;;;11.27;10.05;;;13.50;99.90;;;;;;6272895;22;20440;-75
2023/10/27 11:35:58;;;;;;;8.98;8.07;;;13.50;99.90;;;;;;6272406;22;20004;-74
2023/10/27 11:38:30;;;;;;;9.73;8.68;;;13.60;99.90;;;;;;6245866;22;20392;-74
2023/10/27 11:41:09;;;;;;;10.63;7.95;;;13.60;99.90;;;;;;6272283;22;20010;-74
2023/10/27 11:43:34;;;;;;;8.27;7.18;;;13.60;99.90;;;;;;6272560;22;20004;-74
2023/10/27 11:46:12;;;;;;;12.07;9.07;;;13.70;99.90;;;;;;6272675;22;20389;-74
2023/10/27 11:48:37;;;;;;;8.52;7.22;;;13.70;99.90;;;;;;6272804;22;20441;-74
2023/10/27 11:51:03;;;;;;;11.13;7.75;;;13.70;99.90;;;;;;6272528;22;20081;-75
2023/10/27 11:53:29;;;;;;;7.90;7.10;;;13.80;99.90;;;;;;6272857;22;20007;-73
2023/10/27 11:55:55;;;;;;;8.30;6.97;;;13.80;99.90;;;;;;6271407;22;20418;-74
2023/10/27 11:58:20;;;;;;;6.97;6.05;;;13.80;99.90;;;;;;6271520;22;20008;-75
2023/10/27 12:00:46;;;;;;;8.05;6.30;;;13.80;99.90;;;;;;6272241;22;20077;-74
2023/10/27 12:03:11;;;;;;;6.82;6.13;;;13.90;99.90;;;;;;6272739;22;20094;-74
2023/10/27 12:05:37;;;;;;;6.60;5.80;;;13.80;99.90;;;;;;6244872;22;20010;-74
2023/10/27 12:08:02;;;;;;;7.00;6.25;;;13.90;99.90;;;;;;6272592;22;20000;-74
2023/10/27 12:10:28;;;;;;;8.48;6.68;;;13.80;99.90;;;;;;6244523;22;20092;-74
2023/10/27 12:12:53;;;;;;;5.38;4.88;;;13.80;99.90;;;;;;6271930;22;20341;-74
2023/10/27 12:15:20;;;;;;;6.07;5.32;;;13.80;99.90;;;;;;6245231;22;20083;-74
2023/10/27 12:17:46;;;;;;;6.25;5.40;;;13.80;99.90;;;;;;6272088;22;20007;-74
2023/10/27 12:20:12;;;;;;;8.88;7.00;;;13.90;99.90;;;;;;6271891;22;20075;-74
2023/10/27 12:22:46;;;;;;;7.45;5.80;;;13.90;99.90;;;;;;6271894;22;20024;-74
2023/10/27 12:25:12;;;;;;;8.00;6.30;;;13.90;99.90;;;;;;6271957;22;20437;-74
2023/10/27 12:27:38;;;;;;;7.72;5.28;;;13.90;99.90;;;;;;6271426;22;20317;-74